createdAt,value
2023-05-22T00:00:13.536Z,73.20
2023-05-22T00:02:43.863Z,73.60
2023-05-22T00:05:14.526Z,73.90
2023-05-22T00:07:44.297Z,74.10
2023-05-22T00:10:13.562Z,74.40
2023-05-22T00:12:42.709Z,74.60
2023-05-22T00:15:12.064Z,74.70
2023-05-22T00:17:42.315Z,74.90
2023-05-22T00:20:11.957Z,75.00
2023-05-22T00:22:41.116Z,75.10
2023-05-22T00:25:11.353Z,75.30
2023-05-22T00:27:40.510Z,75.40
2023-05-22T00:30:10.435Z,75.60
2023-05-22T00:32:39.953Z,75.80
2023-05-22T00:35:09.635Z,75.90
2023-05-22T00:37:38.707Z,76.00
2023-05-22T00:40:08.673Z,76.10
2023-05-22T00:42:37.848Z,76.20
2023-05-22T00:45:08.154Z,76.30
2023-05-22T00:47:37.653Z,76.40
2023-05-22T00:50:07.988Z,76.60
2023-05-22T00:52:40.000Z,76.60
2023-05-22T00:55:10.397Z,76.60
2023-05-22T00:57:42.881Z,76.80
2023-05-22T01:00:15.185Z,77.00
2023-05-22T01:02:44.530Z,77.20
2023-05-22T01:05:18.293Z,77.40
2023-05-22T01:07:47.667Z,77.50
2023-05-22T01:10:16.802Z,77.60
2023-05-22T01:12:55.020Z,77.70
2023-05-22T01:15:37.137Z,77.90
2023-05-22T01:18:25.184Z,78.10
2023-05-22T01:21:04.314Z,78.20
2023-05-22T01:23:49.842Z,78.40
2023-05-22T01:26:43.219Z,78.50
2023-05-22T01:29:23.685Z,78.70
2023-05-22T01:31:55.654Z,78.60
2023-05-22T01:34:26.995Z,78.60
2023-05-22T01:36:57.377Z,78.60
2023-05-22T01:39:28.782Z,78.70
2023-05-22T01:41:58.382Z,78.70
2023-05-22T01:44:27.480Z,78.90
2023-05-22T01:47:00.606Z,79.00
2023-05-22T01:49:29.713Z,79.10
2023-05-22T01:52:10.091Z,79.10
2023-05-22T01:54:52.826Z,79.10
2023-05-22T01:57:30.844Z,79.10
2023-05-22T02:00:09.807Z,79.70
2023-05-22T02:03:00.624Z,79.20
2023-05-22T02:05:33.438Z,79.10
2023-05-22T02:08:04.159Z,79.10
2023-05-22T02:10:35.291Z,79.10
2023-05-22T02:13:04.766Z,79.10
2023-05-22T02:15:33.991Z,79.10
2023-05-22T02:18:03.387Z,79.10
2023-05-22T02:20:32.557Z,79.10
2023-05-22T02:23:01.705Z,79.10
2023-05-22T02:25:32.177Z,79.20
2023-05-22T02:28:01.897Z,79.30
2023-05-22T02:30:31.033Z,79.40
2023-05-22T02:33:00.414Z,79.60
2023-05-22T02:35:29.574Z,80.30
2023-05-22T02:37:58.769Z,80.00
2023-05-22T02:40:28.138Z,80.20
2023-05-22T02:42:57.277Z,80.30
2023-05-22T02:45:26.605Z,80.40
2023-05-22T02:47:55.927Z,80.60
2023-05-22T02:50:25.070Z,80.60
2023-05-22T02:52:54.139Z,80.60
2023-05-22T02:55:23.236Z,80.70
2023-05-22T02:57:52.300Z,80.70
2023-05-22T03:00:22.402Z,80.70
2023-05-22T03:02:53.991Z,80.50
2023-05-22T03:05:23.215Z,80.50
2023-05-22T03:07:53.979Z,80.30
2023-05-22T03:10:23.147Z,80.30
2023-05-22T03:12:52.221Z,80.30
2023-05-22T03:15:21.693Z,80.30
2023-05-22T03:17:53.219Z,80.40
2023-05-22T03:20:22.600Z,80.40
2023-05-22T03:22:51.693Z,80.30
2023-05-22T03:25:22.007Z,80.20
2023-05-22T03:27:51.607Z,80.10
2023-05-22T03:30:20.916Z,80.10
2023-05-22T03:33:01.245Z,80.00
2023-05-22T03:35:30.523Z,79.70
2023-05-22T03:37:59.816Z,79.40
2023-05-22T03:40:28.952Z,79.30
2023-05-22T03:42:58.438Z,79.10
2023-05-22T03:45:27.548Z,79.00
2023-05-22T03:47:56.767Z,79.10
2023-05-22T03:50:26.606Z,79.10
2023-05-22T03:52:55.772Z,79.20
2023-05-22T03:55:24.925Z,79.20
2023-05-22T03:57:54.056Z,79.10
2023-05-22T04:00:24.237Z,79.00
2023-05-22T04:02:54.937Z,78.90
2023-05-22T04:05:26.624Z,78.80
2023-05-22T04:07:55.993Z,78.70
2023-05-22T04:10:25.639Z,78.80
2023-05-22T04:12:54.827Z,78.60
2023-05-22T04:15:24.195Z,78.40
2023-05-22T04:17:54.727Z,78.20
2023-05-22T04:20:23.923Z,78.00
2023-05-22T04:22:54.498Z,77.80
2023-05-22T04:25:23.640Z,77.60
2023-05-22T04:27:55.015Z,77.40
2023-05-22T04:30:25.772Z,77.20
2023-05-22T04:32:55.099Z,77.00
2023-05-22T04:35:24.699Z,76.80
2023-05-22T04:37:53.813Z,76.60
2023-05-22T04:40:23.239Z,76.40
2023-05-22T04:42:54.317Z,76.40
2023-05-22T04:45:25.395Z,76.40
2023-05-22T04:47:54.957Z,76.20
2023-05-22T04:50:25.022Z,75.80
2023-05-22T04:52:54.176Z,75.30
2023-05-22T04:55:23.370Z,74.90
2023-05-22T04:57:52.907Z,74.60
2023-05-22T05:00:26.469Z,74.30
2023-05-22T05:02:57.517Z,74.10
2023-05-22T05:05:27.130Z,73.90
2023-05-22T05:07:56.823Z,73.70
2023-05-22T05:10:26.104Z,73.60
2023-05-22T05:14:30.460Z,73.40
2023-05-22T05:16:59.620Z,73.30
2023-05-22T05:19:28.878Z,73.10
2023-05-22T05:21:58.128Z,72.70
2023-05-22T05:24:27.602Z,72.40
2023-05-22T05:26:57.386Z,71.90
2023-05-22T05:29:27.140Z,71.70
2023-05-22T05:32:08.273Z,71.50
2023-05-22T05:34:43.385Z,71.40
2023-05-22T05:37:26.162Z,71.30
2023-05-22T05:39:58.447Z,71.10
2023-05-22T05:42:27.587Z,70.80
2023-05-22T05:44:59.782Z,70.60
2023-05-22T05:47:32.493Z,70.10
2023-05-22T05:50:01.669Z,69.80
2023-05-22T05:52:34.237Z,69.50
2023-05-22T05:55:09.034Z,69.10
2023-05-22T05:57:38.208Z,69.00
2023-05-22T06:00:11.730Z,68.80
2023-05-22T06:02:44.026Z,68.40
2023-05-22T06:05:36.080Z,68.10
2023-05-22T06:08:16.891Z,67.90
2023-05-22T06:10:47.010Z,67.60
2023-05-22T06:13:18.660Z,67.20
2023-05-22T06:15:48.498Z,66.90
2023-05-22T06:18:18.127Z,66.50
2023-05-22T06:20:47.282Z,66.10
2023-05-22T06:23:16.542Z,65.50
2023-05-22T06:25:46.619Z,65.20
2023-05-22T06:28:16.383Z,64.90
2023-05-22T06:30:45.829Z,64.50
2023-05-22T06:33:19.914Z,64.20
2023-05-22T06:35:49.199Z,63.70
2023-05-22T06:38:19.220Z,63.40
2023-05-22T06:40:48.421Z,63.00
2023-05-22T06:43:24.218Z,62.70
2023-05-22T06:45:57.655Z,62.20
2023-05-22T06:48:45.267Z,61.90
2023-05-22T06:51:20.955Z,61.60
2023-05-22T06:53:53.652Z,61.10
2023-05-22T06:56:26.737Z,61.00
2023-05-22T06:59:06.425Z,60.90
2023-05-22T07:01:53.762Z,60.50
2023-05-22T07:04:33.114Z,60.20
2023-05-22T07:07:04.931Z,60.00
2023-05-22T07:09:35.168Z,59.90
2023-05-22T07:12:06.604Z,59.80
2023-05-22T07:14:36.177Z,59.50
2023-05-22T07:17:05.836Z,59.60
2023-05-22T07:19:40.469Z,59.30
2023-05-22T07:22:09.594Z,59.10
2023-05-22T07:24:40.937Z,58.70
2023-05-22T07:27:11.387Z,58.30
2023-05-22T07:29:41.062Z,57.90
2023-05-22T07:32:11.300Z,57.30
2023-05-22T07:34:40.562Z,57.50
2023-05-22T07:37:12.040Z,57.50
2023-05-22T07:39:42.418Z,57.30
2023-05-22T07:42:14.691Z,57.10
2023-05-22T07:44:50.807Z,57.20
2023-05-22T07:47:21.625Z,57.60
2023-05-22T07:49:51.752Z,57.30
2023-05-22T07:52:21.877Z,56.90
2023-05-22T07:54:52.394Z,56.80
2023-05-22T07:57:23.073Z,56.50
2023-05-22T07:59:53.638Z,56.40
2023-05-22T08:02:23.224Z,56.10
2023-05-22T08:04:52.467Z,55.80
2023-05-22T08:07:21.637Z,55.70
2023-05-22T08:09:50.801Z,55.50
2023-05-22T08:12:19.917Z,55.40
2023-05-22T08:14:49.021Z,55.40
2023-05-22T08:17:18.219Z,55.00
2023-05-22T08:19:47.418Z,54.50
2023-05-22T08:22:16.705Z,53.90
2023-05-22T08:24:45.921Z,53.30
2023-05-22T08:27:15.062Z,53.00
2023-05-22T08:29:44.211Z,52.70
2023-05-22T08:32:13.337Z,52.40
2023-05-22T08:34:42.906Z,52.20
2023-05-22T08:37:14.115Z,51.90
2023-05-22T08:39:43.674Z,51.70
2023-05-22T08:42:13.239Z,51.40
2023-05-22T08:44:42.678Z,51.10
2023-05-22T08:47:14.137Z,50.90
2023-05-22T08:49:44.073Z,50.70
2023-05-22T08:52:18.942Z,50.40
2023-05-22T08:54:54.272Z,50.20
2023-05-22T08:57:23.882Z,50.00
2023-05-22T08:59:53.180Z,49.70
2023-05-22T09:02:22.947Z,49.50
2023-05-22T09:04:52.639Z,49.40
2023-05-22T09:07:22.220Z,49.20
2023-05-22T09:09:51.313Z,49.10
2023-05-22T09:12:20.455Z,49.10
2023-05-22T09:14:49.834Z,49.00
2023-05-22T09:17:21.089Z,48.80
2023-05-22T09:19:50.207Z,48.70
2023-05-22T09:22:19.934Z,48.60
2023-05-22T09:24:50.019Z,48.40
2023-05-22T09:27:23.144Z,48.30
2023-05-22T09:29:53.716Z,48.10
2023-05-22T09:32:23.511Z,47.80
2023-05-22T09:34:52.696Z,47.40
2023-05-22T09:37:22.198Z,47.00
2023-05-22T09:39:54.479Z,47.00
2023-05-22T09:42:25.168Z,47.50
2023-05-22T09:44:54.254Z,46.40
2023-05-22T09:47:24.042Z,46.20
2023-05-22T09:49:53.284Z,46.00
2023-05-22T09:52:24.250Z,45.90
2023-05-22T09:54:56.712Z,45.80
2023-05-22T09:57:28.955Z,45.60
2023-05-22T09:59:59.267Z,45.20
2023-05-22T10:02:30.421Z,45.10
2023-05-22T10:05:00.825Z,44.80
2023-05-22T10:07:34.397Z,44.60
2023-05-22T10:10:12.237Z,44.30
2023-05-22T10:13:08.083Z,44.20
2023-05-22T10:15:38.312Z,44.10
2023-05-22T10:18:07.721Z,43.80
2023-05-22T10:20:37.270Z,43.60
2023-05-22T10:23:06.999Z,43.20
2023-05-22T10:25:38.719Z,42.50
2023-05-22T10:28:08.879Z,42.20
2023-05-22T10:30:41.424Z,42.10
2023-05-22T10:33:34.531Z,42.00
2023-05-22T10:36:38.352Z,41.80
2023-05-22T10:39:24.364Z,41.70
2023-05-22T10:41:54.060Z,41.50
2023-05-22T10:44:24.225Z,41.50
2023-05-22T10:46:53.441Z,41.10
2023-05-22T10:49:23.842Z,40.90
2023-05-22T10:51:57.329Z,40.60
2023-05-22T10:54:39.249Z,40.50
2023-05-22T10:57:16.225Z,40.00
2023-05-22T10:59:48.371Z,39.50
2023-05-22T11:02:42.642Z,38.60
2023-05-22T11:05:19.527Z,38.30
2023-05-22T11:07:49.879Z,38.20
2023-05-22T11:10:55.011Z,37.50
2023-05-22T11:13:28.223Z,37.30
2023-05-22T11:15:58.441Z,36.80
2023-05-22T11:18:29.753Z,36.90
2023-05-22T11:21:00.867Z,37.30
2023-05-22T11:23:33.817Z,36.90
2023-05-22T11:26:25.317Z,36.90
2023-05-22T11:28:56.777Z,36.80
2023-05-22T11:31:27.108Z,36.90
2023-05-22T11:33:56.388Z,36.80
2023-05-22T11:36:27.752Z,37.40
2023-05-22T11:39:00.238Z,36.70
2023-05-22T11:41:34.239Z,36.70
2023-05-22T11:44:07.789Z,36.40
2023-05-22T11:46:38.955Z,36.10
2023-05-22T11:49:12.406Z,36.10
2023-05-22T11:51:42.069Z,36.40
2023-05-22T11:54:11.926Z,36.40
2023-05-22T11:56:41.804Z,36.50
2023-05-22T11:59:10.931Z,36.50
2023-05-22T12:01:39.985Z,36.30
2023-05-22T12:04:09.183Z,35.70
2023-05-22T12:06:38.370Z,35.20
2023-05-22T12:09:08.889Z,34.90
2023-05-22T12:11:38.074Z,34.50
2023-05-22T12:14:11.476Z,34.20
2023-05-22T12:16:40.702Z,33.90
2023-05-22T12:19:10.995Z,34.10
2023-05-22T12:21:42.070Z,34.20
2023-05-22T12:24:11.541Z,34.70
2023-05-22T12:26:40.801Z,35.70
2023-05-22T12:29:09.952Z,36.80
2023-05-22T12:31:39.270Z,38.20
2023-05-22T12:34:08.766Z,40.50
2023-05-22T12:36:42.802Z,47.90
2023-05-22T12:39:17.863Z,52.80
2023-05-22T12:41:47.053Z,54.70
2023-05-22T12:44:16.489Z,55.60
2023-05-22T12:46:45.693Z,56.50
2023-05-22T12:49:15.148Z,57.50
2023-05-22T12:51:44.287Z,58.10
2023-05-22T12:54:15.392Z,58.40
2023-05-22T12:56:44.512Z,59.30
2023-05-22T12:59:13.556Z,61.00
2023-05-22T13:01:42.813Z,62.20
2023-05-22T13:04:11.951Z,62.70
2023-05-22T13:06:41.097Z,63.50
2023-05-22T13:09:10.168Z,63.90
2023-05-22T13:11:39.833Z,64.30
2023-05-22T13:14:08.950Z,66.10
2023-05-22T13:16:38.217Z,68.70
2023-05-22T13:19:07.423Z,71.70
2023-05-22T13:21:36.911Z,74.10
2023-05-22T13:24:06.139Z,74.80
2023-05-22T13:26:35.238Z,75.70
2023-05-22T13:29:04.445Z,76.20
2023-05-22T13:31:37.460Z,76.60
2023-05-22T13:34:06.896Z,77.10
2023-05-22T13:36:36.015Z,77.40
2023-05-22T13:39:05.148Z,77.80
2023-05-22T13:41:34.298Z,78.00
2023-05-22T13:44:03.454Z,78.40
2023-05-22T13:46:32.715Z,77.90
2023-05-22T13:49:01.948Z,78.10
2023-05-22T13:51:31.207Z,78.00
2023-05-22T13:54:00.785Z,77.60
2023-05-22T13:56:29.870Z,77.20
2023-05-22T13:58:59.330Z,77.20
2023-05-22T14:01:28.492Z,77.00
2023-05-22T14:03:58.053Z,75.40
2023-05-22T14:06:27.719Z,73.00
2023-05-22T14:08:57.343Z,72.20
2023-05-22T14:11:27.451Z,71.70
2023-05-22T14:13:56.673Z,71.40
2023-05-22T14:16:25.885Z,71.50
2023-05-22T14:18:55.164Z,62.10
2023-05-22T14:21:24.303Z,59.90
2023-05-22T14:23:53.500Z,62.90
2023-05-22T14:26:24.226Z,65.20
2023-05-22T14:28:54.020Z,67.70
2023-05-22T14:31:23.321Z,70.00
2023-05-22T14:33:52.462Z,71.60
2023-05-22T14:36:21.631Z,72.70
2023-05-22T14:38:50.910Z,73.60
2023-05-22T14:41:20.032Z,74.30
2023-05-22T14:43:49.130Z,74.90
2023-05-22T14:46:18.287Z,75.50
2023-05-22T14:48:47.465Z,76.30
2023-05-22T14:51:20.221Z,76.50
2023-05-22T14:53:49.860Z,76.90
2023-05-22T14:56:19.268Z,76.60
2023-05-22T14:58:48.474Z,76.60
2023-05-22T15:01:17.636Z,76.60
2023-05-22T15:03:47.383Z,76.50
2023-05-22T15:06:17.684Z,76.40
2023-05-22T15:08:46.849Z,76.40
2023-05-22T15:11:16.087Z,76.40
2023-05-22T15:13:45.338Z,76.70
2023-05-22T15:16:14.531Z,76.90
2023-05-22T15:18:43.731Z,77.10
2023-05-22T15:21:13.066Z,77.20
2023-05-22T15:23:42.333Z,77.60
2023-05-22T15:26:11.490Z,77.80
2023-05-22T15:28:41.006Z,77.70
2023-05-22T15:31:10.709Z,77.80
2023-05-22T15:33:39.835Z,77.70
2023-05-22T15:36:09.000Z,77.60
2023-05-22T15:38:38.131Z,77.60
2023-05-22T15:41:07.266Z,77.40
2023-05-22T15:43:36.385Z,77.40
2023-05-22T15:46:05.744Z,77.40
2023-05-22T15:48:34.837Z,77.20
2023-05-22T15:51:06.407Z,76.80
2023-05-22T15:53:35.593Z,76.60
2023-05-22T15:56:05.550Z,76.50
2023-05-22T15:58:35.006Z,76.00
2023-05-22T16:01:04.158Z,75.60
2023-05-22T16:03:33.408Z,75.60
2023-05-22T16:06:02.686Z,75.70
2023-05-22T16:08:31.771Z,75.40
2023-05-22T16:11:01.748Z,75.20
2023-05-22T16:13:31.134Z,74.80
2023-05-22T16:16:00.258Z,74.50
2023-05-22T16:18:29.360Z,74.20
2023-05-22T16:20:58.561Z,73.90
2023-05-22T16:23:27.656Z,73.90
2023-05-22T16:25:56.734Z,73.90
2023-05-22T16:28:25.965Z,73.90
2023-05-22T16:30:55.107Z,73.70
2023-05-22T16:33:24.182Z,73.90
2023-05-22T16:35:53.359Z,73.70
2023-05-22T16:38:22.511Z,73.40
2023-05-22T16:40:52.984Z,73.00
2023-05-22T16:43:22.150Z,72.10
2023-05-22T16:45:51.563Z,70.90
2023-05-22T16:48:20.871Z,70.50
2023-05-22T16:50:50.114Z,70.60
2023-05-22T16:53:19.640Z,70.60
2023-05-22T16:55:48.846Z,70.50
2023-05-22T16:58:18.165Z,70.50
2023-05-22T17:00:47.606Z,70.70
2023-05-22T17:03:16.887Z,70.70
2023-05-22T17:05:47.523Z,70.40
2023-05-22T17:08:17.167Z,70.90
2023-05-22T17:10:46.304Z,71.30
2023-05-22T17:13:20.851Z,72.20
2023-05-22T17:15:51.382Z,72.80
2023-05-22T17:18:21.395Z,73.50
2023-05-22T17:20:51.771Z,74.20
2023-05-22T17:23:20.945Z,74.70
2023-05-22T17:25:50.867Z,75.10
2023-05-22T17:28:20.063Z,75.40
2023-05-22T17:30:49.307Z,75.60
2023-05-22T17:33:18.485Z,75.90
2023-05-22T17:35:47.880Z,76.20
2023-05-22T17:38:17.463Z,76.50
2023-05-22T17:40:46.631Z,76.90
2023-05-22T17:43:16.716Z,77.10
2023-05-22T17:45:49.926Z,77.30
2023-05-22T17:48:27.010Z,77.60
2023-05-22T17:50:56.336Z,78.00
2023-05-22T17:53:26.502Z,78.30
2023-05-22T17:55:55.685Z,78.60
2023-05-22T17:58:24.995Z,78.90
2023-05-22T18:00:54.164Z,79.10
2023-05-22T18:03:23.614Z,80.00
2023-05-22T18:05:52.808Z,79.70
2023-05-22T18:08:22.000Z,80.00
2023-05-22T18:10:51.392Z,80.30
2023-05-22T18:13:20.554Z,80.60
2023-05-22T18:15:51.405Z,80.90
2023-05-22T18:18:22.652Z,81.20
2023-05-22T18:20:51.961Z,81.40
2023-05-22T18:23:21.457Z,81.80
2023-05-22T18:25:51.187Z,82.20
2023-05-22T18:28:26.342Z,82.50
2023-05-22T18:30:55.768Z,83.20
2023-05-22T18:33:24.962Z,83.80
2023-05-22T18:35:54.113Z,84.20
2023-05-22T18:38:24.466Z,84.60
2023-05-22T18:40:53.825Z,84.80
2023-05-22T18:43:27.790Z,85.10
2023-05-22T18:46:00.523Z,85.50
2023-05-22T18:48:30.966Z,85.60
2023-05-22T18:51:00.841Z,85.90
2023-05-22T18:53:31.542Z,86.20
2023-05-22T18:56:00.909Z,86.50
2023-05-22T18:58:30.154Z,86.70
2023-05-22T19:00:59.907Z,86.90
2023-05-22T19:03:29.094Z,87.10
2023-05-22T19:05:58.263Z,87.20
2023-05-22T19:08:27.579Z,87.30
2023-05-22T19:10:58.443Z,87.40
2023-05-22T19:13:27.631Z,87.50
2023-05-22T19:15:57.401Z,87.70
2023-05-22T19:18:28.410Z,87.70
2023-05-22T19:20:57.644Z,87.70
2023-05-22T19:23:28.525Z,87.60
2023-05-22T19:25:58.393Z,87.60
2023-05-22T19:28:28.113Z,87.70
2023-05-22T19:30:59.939Z,87.60
2023-05-22T19:33:31.595Z,87.60
2023-05-22T19:36:02.457Z,87.50
2023-05-22T19:38:31.739Z,87.60
2023-05-22T19:41:00.955Z,87.30
2023-05-22T19:43:31.396Z,87.40
2023-05-22T19:46:00.740Z,87.40
2023-05-22T19:48:31.825Z,87.50
2023-05-22T19:51:01.179Z,87.50
2023-05-22T19:53:32.498Z,87.70
2023-05-22T19:56:02.665Z,87.70
2023-05-22T19:58:31.846Z,87.70
2023-05-22T20:01:01.067Z,87.90
2023-05-22T20:03:30.270Z,88.10
2023-05-22T20:05:59.399Z,88.30
2023-05-22T20:08:28.566Z,88.40
2023-05-22T20:10:57.707Z,88.60
2023-05-22T20:13:26.870Z,88.80
2023-05-22T20:15:57.327Z,88.80
2023-05-22T20:18:27.066Z,88.90
2023-05-22T20:20:56.481Z,89.00
2023-05-22T20:23:26.234Z,89.00
2023-05-22T20:25:55.521Z,88.70
2023-05-22T20:28:25.868Z,88.50
2023-05-22T20:30:55.036Z,88.40
2023-05-22T20:33:24.280Z,88.40
2023-05-22T20:35:53.852Z,88.40
2023-05-22T20:38:23.053Z,88.50
2023-05-22T20:40:52.265Z,88.70
2023-05-22T20:43:21.371Z,88.80
2023-05-22T20:45:51.223Z,88.70
2023-05-22T20:48:20.388Z,88.80
2023-05-22T20:50:50.694Z,88.90
2023-05-22T20:53:20.027Z,89.10
2023-05-22T20:55:49.283Z,88.80
2023-05-22T20:58:19.902Z,88.80
2023-05-22T21:00:50.148Z,88.80
2023-05-22T21:03:19.348Z,88.80
2023-05-22T21:05:48.585Z,88.60
2023-05-22T21:08:17.766Z,88.50
2023-05-22T21:10:46.897Z,88.40
2023-05-22T21:13:16.072Z,88.20
2023-05-22T21:15:45.353Z,88.30
2023-05-22T21:18:14.629Z,88.30
2023-05-22T21:20:44.175Z,88.20
2023-05-22T21:23:14.350Z,88.10
2023-05-22T21:25:43.409Z,88.20
2023-05-22T21:28:12.506Z,88.30
2023-05-22T21:30:41.928Z,88.20
2023-05-22T21:33:12.072Z,88.00
2023-05-22T21:35:41.223Z,88.10
2023-05-22T21:38:11.384Z,88.20
2023-05-22T21:40:42.865Z,88.20
2023-05-22T21:43:12.182Z,88.10
2023-05-22T21:45:41.292Z,88.10
2023-05-22T21:48:11.531Z,88.10
2023-05-22T21:50:41.030Z,88.10
2023-05-22T21:53:10.487Z,88.00
2023-05-22T21:55:39.584Z,88.00
2023-05-22T21:58:08.717Z,87.90
2023-05-22T22:00:38.522Z,88.00
2023-05-22T22:03:08.437Z,87.90
2023-05-22T22:05:37.562Z,88.10
2023-05-22T22:08:06.660Z,88.20
2023-05-22T22:10:36.327Z,88.20
2023-05-22T22:13:05.838Z,88.20
2023-05-22T22:15:36.660Z,88.20
2023-05-22T22:18:06.009Z,88.30
2023-05-22T22:20:44.151Z,88.50
2023-05-22T22:23:15.001Z,88.50
2023-05-22T22:25:44.194Z,88.40
2023-05-22T22:28:13.296Z,88.50
2023-05-22T22:30:42.592Z,88.80
2023-05-22T22:33:12.027Z,88.60
2023-05-22T22:35:42.178Z,88.90
2023-05-22T22:38:11.695Z,89.00
2023-05-22T22:40:41.087Z,89.30
2023-05-22T22:43:10.389Z,89.40
2023-05-22T22:45:42.617Z,89.40
2023-05-22T22:48:12.322Z,89.30
2023-05-22T22:50:41.693Z,89.10
2023-05-22T22:53:10.996Z,89.10
2023-05-22T22:55:40.275Z,89.10
2023-05-22T22:58:09.858Z,89.10
2023-05-22T23:00:39.065Z,89.00
2023-05-22T23:03:08.244Z,89.30
2023-05-22T23:05:37.618Z,89.30
2023-05-22T23:08:06.857Z,89.60
2023-05-22T23:10:35.956Z,89.90
2023-05-22T23:13:05.090Z,89.90
2023-05-22T23:15:34.229Z,89.90
2023-05-22T23:18:03.438Z,89.80
2023-05-22T23:20:32.497Z,89.70
2023-05-22T23:23:01.668Z,89.90
2023-05-22T23:25:30.984Z,90.00
2023-05-22T23:28:00.102Z,90.00
2023-05-22T23:30:29.200Z,89.90
2023-05-22T23:32:58.399Z,89.80
2023-05-22T23:35:27.485Z,89.80
2023-05-22T23:37:56.667Z,89.80
2023-05-22T23:40:25.780Z,89.70
2023-05-22T23:42:54.926Z,89.60
2023-05-22T23:45:24.052Z,89.60
2023-05-22T23:47:53.225Z,89.50
2023-05-22T23:50:22.345Z,89.40
2023-05-22T23:52:51.540Z,89.20
2023-05-22T23:55:20.696Z,89.40
2023-05-22T23:57:50.588Z,89.50
